UAE101 KBOS-OMDB
Flight info
| Callsign | UAE101 |
|---|---|
| Flight time | N/A |
| Altitude | 29000 |
| Route | CELTK7 CELTK DCT FRILL DCT KANNI/M083F290 DCT CARAC DCT JEBBY DCT 43N050W 4030N04000W/M083F310 38N030W 37N020W DCT LUTAK/N0489F310 DCT SONAP/N0485F320 DCT GIMAL DCT PESAS N858 OSLEP N747 SVL/N0485F330 M744 CARBO UM744 MOS UA411 DAHRA UZ444 BNA UA31 BABOR UZ888 DIMAO UL874 OMENI DCT ARLOS/N0480F350 UN4 SALUN N705 MMA P751 DASUM Y234 FYM M872 BDB Y214 RAPMA DCT KUVSO DCT RIBOT M550 GOLGU DCT UKRAG G783 ASPED Q308 KIPOK Q568 IMPED |
| Aircraft | B77W/H-SDE1E2E3FGHIJ2J3J4J5M1RWXY/LB1D1 |
Departure
| Time | 2026-04-30 17:58 |
|---|---|
| Airport | Boston Logan International Airport (KBOS) |
Arrival
| Time | N/A |
|---|---|
| Airport | Dubai International Airport (OMDB) |
| Time | Latitude | Longitude | Altitude | Speed | Heading |
|---|---|---|---|---|---|
| 2026-04-30 17:39 | 42.37049 | -71.02240 | 30 ft | 0 kts | 141° |
| 2026-04-30 17:47 | 42.37080 | -71.02257 | 37 ft | 0 kts | 191° |
| 2026-04-30 17:48 | 42.37136 | -71.02312 | 29 ft | 4 kts | 110° |
| 2026-04-30 17:48 | 42.37183 | -71.02392 | 28 ft | 1 kts | 135° |
| 2026-04-30 17:52 | 42.37150 | -71.02260 | 29 ft | 13 kts | 68° |
| 2026-04-30 17:53 | 42.37235 | -71.01973 | 30 ft | 5 kts | 77° |
| 2026-04-30 17:54 | 42.37335 | -71.01870 | 30 ft | 5 kts | 25° |
| 2026-04-30 17:55 | 42.37374 | -71.01721 | 30 ft | 5 kts | 128° |
| 2026-04-30 17:56 | 42.37351 | -71.01688 | 30 ft | 0 kts | 135° |
| 2026-04-30 17:57 | 42.37032 | -71.01263 | 30 ft | 103 kts | 135° |
| 2026-04-30 17:58 | 42.34344 | -70.97530 | 1382 ft | 214 kts | 121° |
| 2026-04-30 17:59 | 42.32664 | -70.89373 | 3330 ft | 239 kts | 107° |
| 2026-04-30 18:00 | 42.33312 | -70.79901 | 4615 ft | 286 kts | 91° |
| 2026-04-30 18:00 | 42.32317 | -70.71949 | 6136 ft | 294 kts | 105° |
| 2026-04-30 18:01 | 42.31605 | -70.66453 | 7385 ft | 298 kts | 105° |
| 2026-04-30 18:02 | 42.30739 | -70.58106 | 9416 ft | 302 kts | 102° |
| 2026-04-30 18:02 | 42.30018 | -70.49354 | 10485 ft | 335 kts | 102° |
| 2026-04-30 18:03 | 42.29153 | -70.39218 | 11184 ft | 383 kts | 101° |
| 2026-04-30 18:04 | 42.28225 | -70.28252 | 13035 ft | 398 kts | 98° |
| 2026-04-30 18:05 | 42.29499 | -70.12975 | 15438 ft | 418 kts | 84° |
| 2026-04-30 18:06 | 42.31431 | -69.97347 | 17720 ft | 433 kts | 84° |
| 2026-04-30 18:07 | 42.33394 | -69.80994 | 19645 ft | 449 kts | 84° |
| 2026-04-30 18:08 | 42.34890 | -69.68375 | 21007 ft | 461 kts | 84° |
| 2026-04-30 18:09 | 42.36930 | -69.50980 | 22824 ft | 474 kts | 84° |
| 2026-04-30 18:10 | 42.38981 | -69.33256 | 24368 ft | 486 kts | 84° |
| 2026-04-30 18:11 | 42.41024 | -69.15331 | 25691 ft | 497 kts | 84° |
| 2026-04-30 18:11 | 42.42599 | -69.01336 | 26671 ft | 505 kts | 84° |
| 2026-04-30 18:12 | 42.44160 | -68.87326 | 27785 ft | 507 kts | 84° |
| 2026-04-30 18:13 | 42.45199 | -68.77913 | 28505 ft | 508 kts | 84° |
| 2026-04-30 18:13 | 42.46587 | -68.65179 | 28812 ft | 516 kts | 84° |
| 2026-04-30 18:14 | 42.47798 | -68.53997 | 28820 ft | 510 kts | 84° |
| 2026-04-30 18:15 | 42.50681 | -68.26889 | 28869 ft | 517 kts | 84° |
| 2026-04-30 18:16 | 42.52659 | -68.07848 | 28824 ft | 512 kts | 85° |
| 2026-04-30 18:17 | 42.53634 | -67.98412 | 28835 ft | 515 kts | 85° |
| 2026-04-30 18:18 | 42.55116 | -67.83951 | 28830 ft | 516 kts | 85° |
| 2026-04-30 18:18 | 42.56086 | -67.74330 | 28839 ft | 514 kts | 87° |
| 2026-04-30 18:19 | 42.57008 | -67.64714 | 28823 ft | 516 kts | 86° |
| 2026-04-30 18:19 | 42.57975 | -67.55201 | 28814 ft | 509 kts | 85° |
| 2026-04-30 18:20 | 42.58932 | -67.45665 | 28836 ft | 512 kts | 85° |
| 2026-04-30 18:20 | 42.59867 | -67.36041 | 28845 ft | 516 kts | 85° |
| 2026-04-30 18:21 | 42.60797 | -67.26367 | 28847 ft | 518 kts | 85° |
| 2026-04-30 18:21 | 42.61725 | -67.16668 | 28832 ft | 517 kts | 85° |
| 2026-04-30 18:22 | 42.62644 | -67.06986 | 28847 ft | 517 kts | 85° |
| 2026-04-30 18:22 | 42.63948 | -66.92649 | 28850 ft | 513 kts | 86° |
| 2026-04-30 18:23 | 42.64725 | -66.83037 | 28826 ft | 511 kts | 86° |
| 2026-04-30 18:23 | 42.65487 | -66.73450 | 28851 ft | 511 kts | 86° |
| 2026-04-30 18:24 | 42.66637 | -66.59033 | 28860 ft | 512 kts | 86° |
| 2026-04-30 18:25 | 42.67401 | -66.49400 | 28863 ft | 514 kts | 86° |
| 2026-04-30 18:25 | 42.68537 | -66.34881 | 28870 ft | 516 kts | 86° |
| 2026-04-30 18:26 | 42.69659 | -66.20304 | 28869 ft | 518 kts | 86° |
| 2026-04-30 18:27 | 42.70764 | -66.05693 | 28878 ft | 518 kts | 86° |
| 2026-04-30 18:28 | 42.71838 | -65.91244 | 28877 ft | 518 kts | 86° |
| 2026-04-30 18:28 | 42.72905 | -65.76635 | 28881 ft | 517 kts | 86° |
| 2026-04-30 18:29 | 42.74296 | -65.57180 | 28873 ft | 516 kts | 86° |
| 2026-04-30 18:30 | 42.75649 | -65.37799 | 28895 ft | 514 kts | 86° |
| 2026-04-30 18:31 | 42.76640 | -65.23273 | 28898 ft | 514 kts | 87° |
| 2026-04-30 18:32 | 42.77288 | -65.13628 | 29035 ft | 518 kts | 87° |
| 2026-04-30 18:32 | 42.77613 | -65.08745 | 29374 ft | 518 kts | 87° |
| 2026-04-30 18:32 | 42.78244 | -64.99197 | 30252 ft | 512 kts | 87° |
| 2026-04-30 18:33 | 42.78559 | -64.94382 | 30602 ft | 510 kts | 87° |
| 2026-04-30 18:33 | 42.79183 | -64.84738 | 30874 ft | 513 kts | 87° |
| 2026-04-30 18:33 | 42.79492 | -64.79901 | 30917 ft | 513 kts | 87° |
| 2026-04-30 18:34 | 42.80404 | -64.65474 | 30923 ft | 507 kts | 87° |
| 2026-04-30 18:35 | 42.80997 | -64.55926 | 30924 ft | 506 kts | 87° |
| 2026-04-30 18:35 | 42.81581 | -64.46374 | 30936 ft | 507 kts | 87° |
| 2026-04-30 18:36 | 42.82447 | -64.31991 | 30919 ft | 508 kts | 87° |
| 2026-04-30 18:37 | 42.83293 | -64.17646 | 30932 ft | 505 kts | 87° |
| 2026-04-30 18:37 | 42.83846 | -64.08111 | 30941 ft | 504 kts | 87° |
| 2026-04-30 18:38 | 42.84380 | -63.98746 | 30942 ft | 504 kts | 87° |
| 2026-04-30 18:38 | 42.84916 | -63.89217 | 30941 ft | 504 kts | 87° |
| 2026-04-30 18:39 | 42.85444 | -63.79679 | 30949 ft | 505 kts | 87° |
| 2026-04-30 18:39 | 42.85965 | -63.70131 | 30961 ft | 505 kts | 87° |
| 2026-04-30 18:40 | 42.86477 | -63.60608 | 30951 ft | 503 kts | 87° |
| 2026-04-30 18:40 | 42.86979 | -63.51109 | 30952 ft | 501 kts | 87° |
| 2026-04-30 18:41 | 42.87458 | -63.41904 | 30952 ft | 499 kts | 87° |
| 2026-04-30 18:41 | 42.87981 | -63.31690 | 30964 ft | 498 kts | 88° |
| 2026-04-30 18:42 | 42.88455 | -63.22269 | 30969 ft | 498 kts | 88° |
| 2026-04-30 18:45 | 42.91510 | -62.57379 | 30986 ft | 499 kts | 88° |
| 2026-04-30 18:46 | 42.91924 | -62.47933 | 30996 ft | 499 kts | 88° |
| 2026-04-30 18:46 | 42.92330 | -62.38491 | 30997 ft | 498 kts | 88° |
| 2026-04-30 18:47 | 42.92728 | -62.29052 | 31003 ft | 498 kts | 89° |
| 2026-04-30 18:47 | 42.93118 | -62.19629 | 31009 ft | 498 kts | 88° |
| 2026-04-30 18:48 | 42.93500 | -62.10191 | 31014 ft | 498 kts | 88° |
| 2026-04-30 18:48 | 42.93875 | -62.00753 | 31014 ft | 498 kts | 89° |
| 2026-04-30 18:49 | 42.94235 | -61.91482 | 31013 ft | 498 kts | 89° |
| 2026-04-30 18:49 | 42.94595 | -61.82031 | 31009 ft | 499 kts | 89° |
| 2026-04-30 18:50 | 42.94947 | -61.72569 | 31021 ft | 500 kts | 89° |
| 2026-04-30 18:50 | 42.95293 | -61.63078 | 31028 ft | 501 kts | 89° |
| 2026-04-30 18:51 | 42.95631 | -61.53561 | 31025 ft | 502 kts | 89° |
| 2026-04-30 18:51 | 42.95962 | -61.44034 | 31027 ft | 503 kts | 89° |
| 2026-04-30 18:52 | 42.96286 | -61.34482 | 31035 ft | 504 kts | 89° |
| 2026-04-30 18:52 | 42.96600 | -61.24983 | 31048 ft | 505 kts | 89° |
| 2026-04-30 18:53 | 42.96909 | -61.15400 | 31049 ft | 506 kts | 89° |
| 2026-04-30 18:53 | 42.97210 | -61.05803 | 31041 ft | 506 kts | 89° |
| 2026-04-30 18:54 | 42.97498 | -60.96386 | 31045 ft | 505 kts | 89° |
| 2026-04-30 18:54 | 42.97783 | -60.86802 | 31050 ft | 505 kts | 89° |
| 2026-04-30 18:55 | 42.98060 | -60.77216 | 31051 ft | 505 kts | 89° |
| 2026-04-30 18:55 | 42.98460 | -60.62864 | 31051 ft | 504 kts | 89° |
| 2026-04-30 18:56 | 42.98841 | -60.48532 | 31046 ft | 503 kts | 89° |
| 2026-04-30 18:57 | 42.99204 | -60.34213 | 31051 ft | 503 kts | 89° |
| 2026-04-30 18:57 | 42.99436 | -60.24661 | 31050 ft | 503 kts | 89° |
| 2026-04-30 18:58 | 42.99770 | -60.10323 | 31052 ft | 504 kts | 89° |
| 2026-04-30 18:59 | 43.00111 | -59.96166 | 31055 ft | 504 kts | 88° |
| 2026-04-30 19:00 | 43.00948 | -59.77041 | 31058 ft | 504 kts | 87° |
| 2026-04-30 19:01 | 43.01740 | -59.57899 | 31065 ft | 505 kts | 87° |
| 2026-04-30 19:02 | 43.02294 | -59.43509 | 31065 ft | 505 kts | 87° |
| 2026-04-30 19:03 | 43.03009 | -59.24326 | 31065 ft | 505 kts | 87° |
| 2026-04-30 19:04 | 43.03694 | -59.05129 | 31072 ft | 506 kts | 87° |
| 2026-04-30 19:05 | 43.04340 | -58.86090 | 31070 ft | 506 kts | 87° |
| 2026-04-30 19:06 | 43.04961 | -58.66856 | 31080 ft | 506 kts | 87° |
| 2026-04-30 19:06 | 43.05406 | -58.52426 | 31083 ft | 507 kts | 87° |
| 2026-04-30 19:07 | 43.05833 | -58.37988 | 31082 ft | 506 kts | 87° |
| 2026-04-30 19:08 | 43.06373 | -58.18749 | 31089 ft | 506 kts | 88° |
| 2026-04-30 19:09 | 43.06755 | -58.04400 | 31091 ft | 506 kts | 88° |
| 2026-04-30 19:09 | 43.06998 | -57.94951 | 31090 ft | 506 kts | 88° |
| 2026-04-30 19:10 | 43.07470 | -57.75756 | 31098 ft | 504 kts | 88° |
| 2026-04-30 19:11 | 43.07809 | -57.61387 | 31108 ft | 504 kts | 88° |
| 2026-04-30 19:12 | 43.08025 | -57.51811 | 31113 ft | 504 kts | 88° |
| 2026-04-30 19:12 | 43.08232 | -57.42233 | 31111 ft | 504 kts | 88° |
| 2026-04-30 19:13 | 43.08593 | -57.24693 | 31108 ft | 504 kts | 89° |
| 2026-04-30 19:14 | 43.08777 | -57.15140 | 31119 ft | 502 kts | 89° |
| 2026-04-30 19:14 | 43.08952 | -57.05623 | 31115 ft | 498 kts | 90° |
| 2026-04-30 19:15 | 43.09116 | -56.96325 | 31121 ft | 497 kts | 90° |
| 2026-04-30 19:15 | 43.09351 | -56.82115 | 31126 ft | 499 kts | 90° |
| 2026-04-30 19:16 | 43.09499 | -56.72627 | 31120 ft | 499 kts | 90° |
| 2026-04-30 19:17 | 43.09707 | -56.58499 | 31120 ft | 490 kts | 91° |
| 2026-04-30 19:17 | 43.09892 | -56.44554 | 31134 ft | 488 kts | 90° |
| 2026-04-30 19:18 | 43.10061 | -56.30593 | 31136 ft | 490 kts | 91° |
| 2026-04-30 19:19 | 43.10165 | -56.21251 | 31139 ft | 492 kts | 91° |
| 2026-04-30 19:19 | 43.10306 | -56.07202 | 31135 ft | 493 kts | 90° |
| 2026-04-30 19:20 | 43.10390 | -55.98010 | 31127 ft | 492 kts | 91° |
| 2026-04-30 19:21 | 43.10501 | -55.83987 | 31130 ft | 491 kts | 90° |
| 2026-04-30 19:22 | 43.10627 | -55.65382 | 31149 ft | 492 kts | 91° |
| 2026-04-30 19:23 | 43.10756 | -55.37267 | 31154 ft | 492 kts | 90° |
| 2026-04-30 19:24 | 43.10795 | -55.23219 | 31146 ft | 492 kts | 91° |
| 2026-04-30 19:25 | 43.10822 | -54.99899 | 31153 ft | 492 kts | 91° |
| 2026-04-30 19:26 | 43.10810 | -54.81244 | 31160 ft | 495 kts | 90° |
| 2026-04-30 19:27 | 43.10780 | -54.67120 | 31153 ft | 495 kts | 90° |
| 2026-04-30 19:28 | 43.10733 | -54.53014 | 31166 ft | 493 kts | 90° |
| 2026-04-30 19:29 | 43.10643 | -54.34191 | 31159 ft | 496 kts | 90° |
| 2026-04-30 19:30 | 43.10522 | -54.15387 | 31164 ft | 496 kts | 90° |
| 2026-04-30 19:31 | 43.10372 | -53.96609 | 31176 ft | 498 kts | 90° |
| 2026-04-30 19:31 | 43.10237 | -53.82375 | 31173 ft | 499 kts | 90° |
| 2026-04-30 19:32 | 43.10137 | -53.72893 | 31171 ft | 498 kts | 90° |
| 2026-04-30 19:32 | 43.10030 | -53.63423 | 31172 ft | 498 kts | 90° |
| 2026-04-30 19:33 | 43.09914 | -53.53960 | 31169 ft | 497 kts | 90° |
| 2026-04-30 19:33 | 43.09792 | -53.44510 | 31169 ft | 496 kts | 90° |
| 2026-04-30 19:34 | 43.09662 | -53.35085 | 31170 ft | 495 kts | 90° |
| 2026-04-30 19:35 | 43.09452 | -53.20962 | 31168 ft | 496 kts | 90° |
| 2026-04-30 19:35 | 43.09303 | -53.11535 | 31170 ft | 496 kts | 90° |
| 2026-04-30 19:36 | 43.09146 | -53.02109 | 31180 ft | 495 kts | 90° |
| 2026-04-30 19:36 | 43.08899 | -52.88169 | 31186 ft | 494 kts | 90° |
| 2026-04-30 19:37 | 43.08723 | -52.78802 | 31163 ft | 492 kts | 90° |
| 2026-04-30 19:37 | 43.08541 | -52.69463 | 31173 ft | 490 kts | 89° |
| 2026-04-30 19:38 | 43.08353 | -52.60225 | 31187 ft | 489 kts | 89° |
| 2026-04-30 19:38 | 43.08156 | -52.50927 | 31177 ft | 489 kts | 90° |
| 2026-04-30 19:39 | 43.07952 | -52.41632 | 31177 ft | 489 kts | 90° |
| 2026-04-30 19:39 | 43.07741 | -52.32329 | 31193 ft | 490 kts | 90° |
| 2026-04-30 19:40 | 43.07521 | -52.23021 | 31175 ft | 489 kts | 90° |
| 2026-04-30 19:40 | 43.07294 | -52.13740 | 31180 ft | 487 kts | 90° |
| 2026-04-30 19:41 | 43.07061 | -52.04494 | 31181 ft | 486 kts | 90° |
| 2026-04-30 19:41 | 43.06826 | -51.95446 | 31181 ft | 485 kts | 90° |
| 2026-04-30 19:42 | 43.06579 | -51.86229 | 31192 ft | 485 kts | 90° |
| 2026-04-30 19:42 | 43.06325 | -51.77016 | 31180 ft | 485 kts | 90° |
| 2026-04-30 19:43 | 43.06063 | -51.67816 | 31187 ft | 483 kts | 91° |
| 2026-04-30 19:44 | 43.05659 | -51.54112 | 31179 ft | 479 kts | 90° |
| 2026-04-30 19:44 | 43.05386 | -51.45039 | 31185 ft | 477 kts | 90° |
| 2026-04-30 19:45 | 43.05103 | -51.35983 | 31183 ft | 476 kts | 91° |
| 2026-04-30 19:45 | 43.04813 | -51.26932 | 31182 ft | 477 kts | 90° |
| 2026-04-30 19:46 | 43.04517 | -51.17870 | 31185 ft | 478 kts | 90° |
| 2026-04-30 19:46 | 43.04211 | -51.08773 | 31190 ft | 479 kts | 91° |
| 2026-04-30 19:47 | 43.03903 | -50.99815 | 31182 ft | 477 kts | 91° |
| 2026-04-30 19:47 | 43.03587 | -50.90815 | 31175 ft | 475 kts | 91° |
| 2026-04-30 19:48 | 43.03264 | -50.81827 | 31175 ft | 473 kts | 91° |
| 2026-04-30 19:48 | 43.02933 | -50.72860 | 31182 ft | 472 kts | 91° |
| 2026-04-30 19:49 | 43.02598 | -50.63890 | 31179 ft | 473 kts | 91° |
| 2026-04-30 19:49 | 43.02080 | -50.50410 | 31186 ft | 474 kts | 91° |
| 2026-04-30 19:50 | 43.01725 | -50.41423 | 31176 ft | 474 kts | 91° |
| 2026-04-30 19:50 | 43.01366 | -50.32509 | 31169 ft | 472 kts | 92° |
| 2026-04-30 19:51 | 43.00999 | -50.23560 | 31171 ft | 471 kts | 91° |
| 2026-04-30 19:51 | 43.00626 | -50.14625 | 31189 ft | 471 kts | 92° |
| 2026-04-30 19:52 | 43.00246 | -50.05680 | 31176 ft | 472 kts | 91° |
| 2026-04-30 19:52 | 42.99465 | -49.96941 | 31165 ft | 474 kts | 102° |
| 2026-04-30 19:53 | 42.97728 | -49.88244 | 31176 ft | 475 kts | 104° |
| 2026-04-30 19:53 | 42.95945 | -49.79556 | 31175 ft | 476 kts | 104° |
| 2026-04-30 19:54 | 42.94176 | -49.70829 | 31171 ft | 478 kts | 103° |
| 2026-04-30 19:54 | 42.92404 | -49.62048 | 31175 ft | 481 kts | 103° |
| 2026-04-30 19:55 | 42.90620 | -49.53220 | 31175 ft | 484 kts | 103° |
| 2026-04-30 19:55 | 42.88822 | -49.44362 | 31168 ft | 485 kts | 103° |
| 2026-04-30 19:56 | 42.87014 | -49.35492 | 31159 ft | 486 kts | 103° |
| 2026-04-30 19:56 | 42.85197 | -49.26627 | 31160 ft | 485 kts | 103° |
| 2026-04-30 19:57 | 42.83376 | -49.17777 | 31159 ft | 485 kts | 103° |
| 2026-04-30 19:57 | 42.81550 | -49.08943 | 31164 ft | 484 kts | 103° |
| 2026-04-30 19:58 | 42.79718 | -49.00115 | 31157 ft | 484 kts | 103° |
| 2026-04-30 19:58 | 42.77914 | -48.91458 | 31156 ft | 484 kts | 103° |
| 2026-04-30 19:59 | 42.76382 | -48.84135 | 31155 ft | 484 kts | 103° |
| 2026-04-30 20:00 | 42.73304 | -48.69500 | 31159 ft | 485 kts | 103° |
| 2026-04-30 20:00 | 42.71740 | -48.62106 | 31155 ft | 486 kts | 103° |
| 2026-04-30 20:01 | 42.68925 | -48.48855 | 31149 ft | 487 kts | 104° |
| 2026-04-30 20:01 | 42.67035 | -48.40011 | 31149 ft | 488 kts | 103° |
| 2026-04-30 20:02 | 42.64184 | -48.26737 | 31141 ft | 488 kts | 104° |
| 2026-04-30 20:03 | 42.61318 | -48.13475 | 31139 ft | 488 kts | 104° |
| 2026-04-30 20:03 | 42.59399 | -48.04639 | 31145 ft | 488 kts | 104° |
| 2026-04-30 20:04 | 42.57506 | -47.95963 | 31133 ft | 488 kts | 104° |
| 2026-04-30 20:05 | 42.54616 | -47.82781 | 31131 ft | 488 kts | 104° |
| 2026-04-30 20:05 | 42.51697 | -47.69546 | 31132 ft | 489 kts | 104° |
| 2026-04-30 20:06 | 42.49740 | -47.60721 | 31128 ft | 489 kts | 104° |
| 2026-04-30 20:06 | 42.47776 | -47.51899 | 31130 ft | 490 kts | 104° |
| 2026-04-30 20:07 | 42.45801 | -47.43066 | 31129 ft | 490 kts | 104° |
| 2026-04-30 20:08 | 42.42827 | -47.29825 | 31127 ft | 490 kts | 105° |
| 2026-04-30 20:08 | 42.40836 | -47.21010 | 31124 ft | 490 kts | 104° |
| 2026-04-30 20:09 | 42.38839 | -47.12204 | 31124 ft | 490 kts | 105° |
| 2026-04-30 20:09 | 42.35866 | -46.99154 | 31120 ft | 490 kts | 104° |
| 2026-04-30 20:10 | 42.32838 | -46.85945 | 31115 ft | 491 kts | 104° |
| 2026-04-30 20:11 | 42.29791 | -46.72729 | 31118 ft | 491 kts | 105° |
| 2026-04-30 20:11 | 42.27747 | -46.63910 | 31107 ft | 493 kts | 105° |
| 2026-04-30 20:12 | 42.24656 | -46.50636 | 31107 ft | 495 kts | 105° |
| 2026-04-30 20:13 | 42.22581 | -46.41770 | 31112 ft | 496 kts | 105° |
| 2026-04-30 20:13 | 42.20497 | -46.32901 | 31095 ft | 497 kts | 106° |
| 2026-04-30 20:14 | 42.18404 | -46.24030 | 31106 ft | 496 kts | 106° |
| 2026-04-30 20:14 | 42.16306 | -46.15171 | 31096 ft | 496 kts | 106° |
| 2026-04-30 20:15 | 42.14203 | -46.06322 | 31098 ft | 496 kts | 106° |
| 2026-04-30 20:15 | 42.12129 | -45.97636 | 31091 ft | 496 kts | 106° |
| 2026-04-30 20:16 | 42.10028 | -45.88861 | 31095 ft | 496 kts | 106° |
| 2026-04-30 20:16 | 42.07901 | -45.80017 | 31084 ft | 497 kts | 106° |
| 2026-04-30 20:17 | 42.05768 | -45.71180 | 31091 ft | 496 kts | 107° |
| 2026-04-30 20:17 | 42.03624 | -45.62335 | 31094 ft | 499 kts | 107° |
| 2026-04-30 20:18 | 42.01465 | -45.53461 | 31092 ft | 500 kts | 107° |
| 2026-04-30 20:18 | 41.99298 | -45.44588 | 31083 ft | 501 kts | 107° |
| 2026-04-30 20:19 | 41.97119 | -45.35699 | 31084 ft | 500 kts | 107° |
| 2026-04-30 20:19 | 41.94935 | -45.26828 | 31079 ft | 500 kts | 107° |
| 2026-04-30 20:20 | 41.92745 | -45.17962 | 31077 ft | 500 kts | 108° |
| 2026-04-30 20:20 | 41.90550 | -45.09112 | 31071 ft | 500 kts | 108° |
| 2026-04-30 20:21 | 41.88346 | -45.00256 | 31079 ft | 501 kts | 108° |
| 2026-04-30 20:21 | 41.86168 | -44.91537 | 31066 ft | 503 kts | 108° |
| 2026-04-30 20:22 | 41.83937 | -44.82642 | 31072 ft | 503 kts | 108° |
| 2026-04-30 20:22 | 41.81698 | -44.73747 | 31061 ft | 504 kts | 109° |
| 2026-04-30 20:23 | 41.79465 | -44.64908 | 31064 ft | 504 kts | 109° |
| 2026-04-30 20:23 | 41.77199 | -44.55975 | 31063 ft | 504 kts | 109° |
| 2026-04-30 20:24 | 41.74938 | -44.47093 | 31060 ft | 503 kts | 109° |
| 2026-04-30 20:24 | 41.72671 | -44.38222 | 31055 ft | 504 kts | 110° |
| 2026-04-30 20:25 | 41.69251 | -44.24899 | 31057 ft | 505 kts | 110° |
| 2026-04-30 20:26 | 41.65821 | -44.11613 | 31047 ft | 507 kts | 110° |
| 2026-04-30 20:26 | 41.62395 | -43.98414 | 31047 ft | 507 kts | 110° |
| 2026-04-30 20:27 | 41.57753 | -43.80642 | 31026 ft | 506 kts | 110° |
| 2026-04-30 20:28 | 41.53079 | -43.62884 | 31030 ft | 509 kts | 111° |
| 2026-04-30 20:30 | 41.47169 | -43.40609 | 31026 ft | 511 kts | 111° |
| 2026-04-30 20:31 | 41.39983 | -43.13792 | 31004 ft | 513 kts | 112° |
| 2026-04-30 20:32 | 41.33969 | -42.91570 | 31008 ft | 515 kts | 112° |
| 2026-04-30 20:33 | 41.30308 | -42.78139 | 31012 ft | 515 kts | 112° |
| 2026-04-30 20:34 | 41.26620 | -42.64684 | 31003 ft | 516 kts | 112° |
| 2026-04-30 20:35 | 41.22918 | -42.51248 | 30983 ft | 516 kts | 112° |
| 2026-04-30 20:35 | 41.19198 | -42.37820 | 30994 ft | 517 kts | 112° |
| 2026-04-30 20:36 | 41.16705 | -42.28861 | 30989 ft | 517 kts | 112° |
| 2026-04-30 20:37 | 41.12970 | -42.15498 | 30987 ft | 517 kts | 112° |
| 2026-04-30 20:37 | 41.10460 | -42.06554 | 30985 ft | 518 kts | 112° |
| 2026-04-30 20:38 | 41.07986 | -41.97773 | 30983 ft | 518 kts | 113° |
| 2026-04-30 20:38 | 41.05461 | -41.88841 | 30985 ft | 517 kts | 113° |
| 2026-04-30 20:39 | 41.01662 | -41.75458 | 30981 ft | 518 kts | 113° |
| 2026-04-30 20:40 | 40.97851 | -41.62102 | 30968 ft | 517 kts | 113° |
| 2026-04-30 20:40 | 40.95302 | -41.53210 | 30977 ft | 517 kts | 113° |
| 2026-04-30 20:41 | 40.91470 | -41.39899 | 30978 ft | 516 kts | 113° |
| 2026-04-30 20:41 | 40.88911 | -41.31048 | 30967 ft | 515 kts | 113° |
| 2026-04-30 20:42 | 40.86348 | -41.22214 | 30979 ft | 514 kts | 113° |
| 2026-04-30 20:43 | 40.82498 | -41.08997 | 30982 ft | 514 kts | 113° |
| 2026-04-30 20:43 | 40.79923 | -41.00196 | 30980 ft | 514 kts | 113° |
| 2026-04-30 20:44 | 40.76089 | -40.87145 | 30987 ft | 515 kts | 113° |
| 2026-04-30 20:45 | 40.71319 | -40.71000 | 30981 ft | 516 kts | 113° |
| 2026-04-30 20:45 | 40.68279 | -40.60757 | 30989 ft | 516 kts | 114° |
| 2026-04-30 20:46 | 40.63458 | -40.44600 | 30977 ft | 515 kts | 113° |
| 2026-04-30 20:47 | 40.59521 | -40.31479 | 30985 ft | 513 kts | 114° |
| 2026-04-30 20:48 | 40.55582 | -40.18414 | 30986 ft | 512 kts | 114° |
| 2026-04-30 20:48 | 40.52972 | -40.09787 | 30994 ft | 511 kts | 114° |
| 2026-04-30 20:49 | 40.50329 | -40.01045 | 30990 ft | 512 kts | 112° |
| 2026-04-30 20:50 | 40.47469 | -39.87751 | 31002 ft | 514 kts | 105° |
| 2026-04-30 20:50 | 40.45687 | -39.78603 | 30993 ft | 514 kts | 105° |
| 2026-04-30 20:51 | 40.43891 | -39.69573 | 30994 ft | 514 kts | 106° |
| 2026-04-30 20:51 | 40.41133 | -39.55973 | 31002 ft | 514 kts | 106° |
| 2026-04-30 20:52 | 40.39283 | -39.46918 | 30991 ft | 513 kts | 106° |
| 2026-04-30 20:53 | 40.36507 | -39.33387 | 30993 ft | 512 kts | 106° |
| 2026-04-30 20:53 | 40.34650 | -39.24380 | 30996 ft | 512 kts | 106° |
| 2026-04-30 20:54 | 40.31851 | -39.10877 | 30994 ft | 511 kts | 106° |
| 2026-04-30 20:55 | 40.29070 | -38.97545 | 30996 ft | 511 kts | 107° |
| 2026-04-30 20:55 | 40.27188 | -38.88575 | 31000 ft | 511 kts | 107° |
| 2026-04-30 20:56 | 40.24354 | -38.75130 | 30997 ft | 510 kts | 107° |
| 2026-04-30 20:57 | 40.21507 | -38.61715 | 30996 ft | 510 kts | 107° |
| 2026-04-30 20:57 | 40.19602 | -38.52782 | 30998 ft | 510 kts | 107° |
| 2026-04-30 20:58 | 40.16734 | -38.39405 | 30999 ft | 509 kts | 107° |
| 2026-04-30 20:58 | 40.14816 | -38.30505 | 31002 ft | 508 kts | 107° |
| 2026-04-30 20:59 | 40.11933 | -38.17194 | 31004 ft | 507 kts | 107° |
| 2026-04-30 21:00 | 40.08110 | -37.99669 | 30995 ft | 508 kts | 107° |
| 2026-04-30 21:01 | 40.05184 | -37.86353 | 31007 ft | 509 kts | 107° |
| 2026-04-30 21:02 | 40.02238 | -37.73022 | 30993 ft | 510 kts | 107° |
| 2026-04-30 21:02 | 40.00264 | -37.64137 | 30999 ft | 510 kts | 107° |
| 2026-04-30 21:03 | 39.98287 | -37.55272 | 31000 ft | 510 kts | 107° |
| 2026-04-30 21:03 | 39.96300 | -37.46401 | 30989 ft | 510 kts | 107° |
| 2026-04-30 21:04 | 39.94307 | -37.37536 | 30996 ft | 510 kts | 107° |
| 2026-04-30 21:04 | 39.91305 | -37.24247 | 30993 ft | 510 kts | 107° |
| 2026-04-30 21:05 | 39.89295 | -37.15395 | 30994 ft | 510 kts | 107° |
| 2026-04-30 21:05 | 39.87281 | -37.06560 | 30997 ft | 509 kts | 107° |
| 2026-04-30 21:06 | 39.85299 | -36.97899 | 30998 ft | 509 kts | 108° |
| 2026-04-30 21:06 | 39.83273 | -36.89078 | 30997 ft | 509 kts | 107° |
| 2026-04-30 21:07 | 39.81236 | -36.80246 | 30996 ft | 510 kts | 107° |
| 2026-04-30 21:07 | 39.79192 | -36.71417 | 31002 ft | 510 kts | 108° |
| 2026-04-30 21:08 | 39.77139 | -36.62582 | 31001 ft | 511 kts | 108° |
| 2026-04-30 21:08 | 39.75076 | -36.53742 | 31003 ft | 511 kts | 108° |
| 2026-04-30 21:09 | 39.73008 | -36.44911 | 31002 ft | 511 kts | 108° |
| 2026-04-30 21:09 | 39.70936 | -36.36098 | 31005 ft | 510 kts | 108° |
| 2026-04-30 21:10 | 39.68860 | -36.27298 | 30998 ft | 510 kts | 108° |
| 2026-04-30 21:10 | 39.66790 | -36.18563 | 31008 ft | 510 kts | 108° |
| 2026-04-30 21:11 | 39.64686 | -36.09714 | 31009 ft | 510 kts | 108° |
| 2026-04-30 21:11 | 39.62602 | -36.00983 | 31006 ft | 510 kts | 108° |
| 2026-04-30 21:12 | 39.60534 | -35.92348 | 31007 ft | 511 kts | 108° |
| 2026-04-30 21:12 | 39.58420 | -35.83556 | 31001 ft | 511 kts | 108° |
| 2026-04-30 21:13 | 39.56300 | -35.74775 | 31006 ft | 511 kts | 108° |
| 2026-04-30 21:13 | 39.54173 | -35.65993 | 31004 ft | 511 kts | 108° |
| 2026-04-30 21:14 | 39.52036 | -35.57206 | 31012 ft | 512 kts | 108° |
| 2026-04-30 21:14 | 39.49891 | -35.48416 | 31003 ft | 512 kts | 108° |
| 2026-04-30 21:15 | 39.47738 | -35.39629 | 31007 ft | 512 kts | 108° |
| 2026-04-30 21:15 | 39.45580 | -35.30852 | 31005 ft | 512 kts | 108° |
| 2026-04-30 21:16 | 39.43414 | -35.22074 | 31000 ft | 512 kts | 108° |
| 2026-04-30 21:16 | 39.41243 | -35.13310 | 31002 ft | 511 kts | 108° |
| 2026-04-30 21:17 | 39.39068 | -35.04559 | 31004 ft | 512 kts | 108° |
| 2026-04-30 21:17 | 39.36924 | -34.95964 | 31001 ft | 512 kts | 108° |
| 2026-04-30 21:18 | 39.34731 | -34.87206 | 30992 ft | 512 kts | 108° |
| 2026-04-30 21:18 | 39.32532 | -34.78456 | 31000 ft | 512 kts | 108° |
| 2026-04-30 21:19 | 39.30344 | -34.69778 | 31001 ft | 512 kts | 108° |
| 2026-04-30 21:19 | 39.28133 | -34.61043 | 31005 ft | 512 kts | 108° |
| 2026-04-30 21:20 | 39.25913 | -34.52303 | 31003 ft | 512 kts | 108° |
| 2026-04-30 21:20 | 39.23686 | -34.43568 | 31004 ft | 514 kts | 108° |
| 2026-04-30 21:21 | 39.21444 | -34.34804 | 31003 ft | 515 kts | 108° |
| 2026-04-30 21:22 | 39.18060 | -34.21637 | 30994 ft | 516 kts | 108° |
| 2026-04-30 21:23 | 39.13517 | -34.04066 | 30999 ft | 517 kts | 108° |
| 2026-04-30 21:23 | 39.10133 | -33.91059 | 30990 ft | 516 kts | 108° |
| 2026-04-30 21:24 | 39.07847 | -33.82311 | 30995 ft | 515 kts | 109° |
| 2026-04-30 21:24 | 39.05560 | -33.73590 | 30991 ft | 514 kts | 109° |
| 2026-04-30 21:25 | 39.02123 | -33.60541 | 30974 ft | 514 kts | 109° |
| 2026-04-30 21:26 | 38.98674 | -33.47512 | 30994 ft | 514 kts | 109° |
| 2026-04-30 21:27 | 38.95202 | -33.34463 | 30988 ft | 515 kts | 109° |
| 2026-04-30 21:27 | 38.92875 | -33.25756 | 30981 ft | 516 kts | 109° |
| 2026-04-30 21:28 | 38.89369 | -33.12694 | 30991 ft | 516 kts | 109° |
| 2026-04-30 21:29 | 38.85882 | -32.99770 | 30989 ft | 517 kts | 109° |
| 2026-04-30 21:30 | 38.79979 | -32.78037 | 30985 ft | 517 kts | 109° |
| 2026-04-30 21:31 | 38.74427 | -32.57757 | 30982 ft | 518 kts | 109° |
| 2026-04-30 21:32 | 38.70439 | -32.43294 | 30987 ft | 518 kts | 109° |
| 2026-04-30 21:32 | 38.68034 | -32.34609 | 30989 ft | 518 kts | 109° |
| 2026-04-30 21:33 | 38.64796 | -32.22961 | 30980 ft | 519 kts | 109° |
| 2026-04-30 21:34 | 38.62384 | -32.14321 | 30981 ft | 520 kts | 109° |
| 2026-04-30 21:34 | 38.58721 | -32.01249 | 30978 ft | 521 kts | 109° |
| 2026-04-30 21:35 | 38.56310 | -31.92681 | 30973 ft | 522 kts | 109° |
| 2026-04-30 21:35 | 38.53848 | -31.83962 | 30975 ft | 522 kts | 109° |
| 2026-04-30 21:36 | 38.51379 | -31.75247 | 30982 ft | 522 kts | 109° |
| 2026-04-30 21:37 | 38.46412 | -31.57797 | 30963 ft | 523 kts | 110° |
| 2026-04-30 21:37 | 38.43918 | -31.49078 | 30973 ft | 523 kts | 109° |
| 2026-04-30 21:38 | 38.41412 | -31.40349 | 30971 ft | 524 kts | 109° |
| 2026-04-30 21:38 | 38.38899 | -31.31620 | 30974 ft | 525 kts | 109° |
| 2026-04-30 21:39 | 38.36376 | -31.22888 | 30969 ft | 525 kts | 109° |
| 2026-04-30 21:39 | 38.33845 | -31.14154 | 30968 ft | 526 kts | 110° |
| 2026-04-30 21:40 | 38.31307 | -31.05428 | 30969 ft | 526 kts | 110° |
| 2026-04-30 21:40 | 38.28808 | -30.96861 | 30980 ft | 525 kts | 110° |
| 2026-04-30 21:41 | 38.26257 | -30.88146 | 30961 ft | 526 kts | 110° |
| 2026-04-30 21:41 | 38.23716 | -30.79489 | 30966 ft | 526 kts | 110° |
| 2026-04-30 21:42 | 38.21149 | -30.70776 | 30969 ft | 526 kts | 110° |
| 2026-04-30 21:42 | 38.18574 | -30.62061 | 30973 ft | 527 kts | 110° |
| 2026-04-30 21:43 | 38.15988 | -30.53337 | 30958 ft | 528 kts | 110° |
| 2026-04-30 21:43 | 38.13390 | -30.44600 | 30965 ft | 529 kts | 110° |
| 2026-04-30 21:44 | 38.10784 | -30.35863 | 30975 ft | 530 kts | 110° |
| 2026-04-30 21:44 | 38.08163 | -30.27107 | 30965 ft | 531 kts | 110° |
| 2026-04-30 21:45 | 38.05535 | -30.18350 | 30951 ft | 531 kts | 110° |
| 2026-04-30 21:45 | 38.02899 | -30.09593 | 30979 ft | 531 kts | 110° |
| 2026-04-30 21:46 | 38.00549 | -30.00713 | 30959 ft | 531 kts | 102° |
| 2026-04-30 21:46 | 37.99395 | -29.91694 | 30958 ft | 528 kts | 91° |
| 2026-04-30 21:47 | 37.98909 | -29.82408 | 30994 ft | 528 kts | 91° |
| 2026-04-30 21:47 | 37.98421 | -29.73122 | 30961 ft | 529 kts | 91° |
| 2026-04-30 21:48 | 37.97891 | -29.63869 | 30966 ft | 531 kts | 91° |
| 2026-04-30 21:48 | 37.97329 | -29.54527 | 30987 ft | 535 kts | 92° |
| 2026-04-30 21:49 | 37.97041 | -29.49824 | 31280 ft | 535 kts | 92° |
| 2026-04-30 21:49 | 37.96751 | -29.45130 | 31625 ft | 534 kts | 92° |
| 2026-04-30 21:49 | 37.96460 | -29.40442 | 31954 ft | 533 kts | 92° |
| 2026-04-30 21:49 | 37.96169 | -29.35764 | 32250 ft | 533 kts | 92° |
| 2026-04-30 21:50 | 37.95876 | -29.31074 | 32506 ft | 534 kts | 92° |
| 2026-04-30 21:50 | 37.95582 | -29.26388 | 32766 ft | 534 kts | 92° |
| 2026-04-30 21:50 | 37.95285 | -29.21689 | 32926 ft | 536 kts | 91° |
| 2026-04-30 21:50 | 37.94985 | -29.16965 | 32943 ft | 540 kts | 92° |
| 2026-04-30 21:51 | 37.94377 | -29.07471 | 32956 ft | 542 kts | 92° |
| 2026-04-30 21:51 | 37.93771 | -28.98175 | 32956 ft | 538 kts | 92° |
| 2026-04-30 21:52 | 37.93148 | -28.88730 | 32956 ft | 539 kts | 91° |
| 2026-04-30 21:52 | 37.92517 | -28.79254 | 32967 ft | 541 kts | 92° |
| 2026-04-30 21:53 | 37.91876 | -28.69733 | 32981 ft | 544 kts | 92° |
| 2026-04-30 21:53 | 37.91222 | -28.60155 | 32969 ft | 547 kts | 91° |
| 2026-04-30 21:54 | 37.90557 | -28.50539 | 32951 ft | 549 kts | 92° |
| 2026-04-30 21:54 | 37.89882 | -28.40895 | 32962 ft | 550 kts | 92° |
| 2026-04-30 21:55 | 37.89198 | -28.31236 | 32971 ft | 551 kts | 92° |
| 2026-04-30 21:55 | 37.88506 | -28.21580 | 32961 ft | 551 kts | 92° |
| 2026-04-30 21:56 | 37.87812 | -28.11996 | 32957 ft | 550 kts | 92° |
| 2026-04-30 21:56 | 37.87106 | -28.02366 | 32971 ft | 549 kts | 91° |
| 2026-04-30 21:57 | 37.86405 | -27.92904 | 32936 ft | 549 kts | 92° |
| 2026-04-30 21:57 | 37.85685 | -27.83289 | 32959 ft | 549 kts | 92° |
| 2026-04-30 21:58 | 37.84957 | -27.73660 | 32991 ft | 551 kts | 92° |
| 2026-04-30 21:58 | 37.84218 | -27.63997 | 32971 ft | 552 kts | 92° |
| 2026-04-30 21:59 | 37.83469 | -27.54319 | 32964 ft | 553 kts | 92° |
| 2026-04-30 22:00 | 37.82328 | -27.39788 | 32957 ft | 553 kts | 92° |
| 2026-04-30 22:00 | 37.81173 | -27.25313 | 32943 ft | 550 kts | 92° |
| 2026-04-30 22:01 | 37.80397 | -27.15690 | 33006 ft | 551 kts | 92° |
| 2026-04-30 22:01 | 37.79611 | -27.06037 | 32970 ft | 552 kts | 92° |
| 2026-04-30 22:02 | 37.78828 | -26.96527 | 32969 ft | 553 kts | 92° |
| 2026-04-30 22:02 | 37.78022 | -26.86849 | 33017 ft | 554 kts | 92° |
| 2026-04-30 22:03 | 37.77209 | -26.77175 | 32965 ft | 553 kts | 93° |
| 2026-04-30 22:03 | 37.76389 | -26.67532 | 32961 ft | 551 kts | 93° |
| 2026-04-30 22:04 | 37.75566 | -26.57923 | 32944 ft | 550 kts | 93° |
| 2026-04-30 22:05 | 37.74315 | -26.43489 | 32974 ft | 552 kts | 94° |
| 2026-04-30 22:05 | 37.73468 | -26.33839 | 32965 ft | 554 kts | 94° |
| 2026-04-30 22:06 | 37.72616 | -26.24227 | 33022 ft | 555 kts | 94° |
| 2026-04-30 22:06 | 37.71313 | -26.09704 | 32955 ft | 553 kts | 94° |
| 2026-04-30 22:07 | 37.70439 | -26.00077 | 32945 ft | 551 kts | 94° |
| 2026-04-30 22:07 | 37.69577 | -25.90662 | 32979 ft | 549 kts | 95° |
| 2026-04-30 22:08 | 37.68695 | -25.81110 | 32943 ft | 546 kts | 95° |
| 2026-04-30 22:08 | 37.67808 | -25.71600 | 32935 ft | 545 kts | 95° |
| 2026-04-30 22:09 | 37.66917 | -25.62118 | 32957 ft | 544 kts | 95° |
| 2026-04-30 22:09 | 37.66020 | -25.52649 | 32949 ft | 544 kts | 96° |
| 2026-04-30 22:10 | 37.65113 | -25.43172 | 32948 ft | 544 kts | 96° |
| 2026-04-30 22:10 | 37.64198 | -25.33692 | 32954 ft | 545 kts | 96° |
| 2026-04-30 22:11 | 37.62806 | -25.19418 | 32964 ft | 549 kts | 96° |
| 2026-04-30 22:12 | 37.61867 | -25.09889 | 32971 ft | 553 kts | 96° |
| 2026-04-30 22:12 | 37.60909 | -25.00243 | 32995 ft | 555 kts | 97° |
| 2026-04-30 22:13 | 37.59956 | -24.90735 | 32962 ft | 557 kts | 97° |
| 2026-04-30 22:13 | 37.58974 | -24.81035 | 32956 ft | 557 kts | 97° |
| 2026-04-30 22:14 | 37.57987 | -24.71348 | 32954 ft | 556 kts | 97° |
| 2026-04-30 22:14 | 37.56996 | -24.61689 | 32913 ft | 555 kts | 98° |
| 2026-04-30 22:15 | 37.55996 | -24.52043 | 32946 ft | 556 kts | 98° |
| 2026-04-30 22:15 | 37.54986 | -24.42381 | 32959 ft | 557 kts | 98° |
| 2026-04-30 22:16 | 37.53965 | -24.32681 | 32957 ft | 559 kts | 99° |
| 2026-04-30 22:17 | 37.51896 | -24.13264 | 32951 ft | 559 kts | 99° |
| 2026-04-30 22:17 | 37.50346 | -23.98904 | 32892 ft | 557 kts | 99° |
| 2026-04-30 22:18 | 37.48757 | -23.84377 | 32950 ft | 561 kts | 99° |
| 2026-04-30 22:19 | 37.47135 | -23.69708 | 32972 ft | 566 kts | 100° |
| 2026-04-30 22:20 | 37.45496 | -23.55051 | 32950 ft | 565 kts | 100° |
| 2026-04-30 22:20 | 37.43841 | -23.40409 | 32948 ft | 562 kts | 101° |
| 2026-04-30 22:21 | 37.42732 | -23.30703 | 32905 ft | 559 kts | 101° |
| 2026-04-30 22:21 | 37.41617 | -23.21012 | 32952 ft | 560 kts | 101° |
| 2026-04-30 22:22 | 37.40672 | -23.12867 | 32972 ft | 563 kts | 101° |
| 2026-04-30 22:22 | 37.39540 | -23.03167 | 32970 ft | 566 kts | 101° |
| 2026-04-30 22:23 | 37.38406 | -22.93511 | 32970 ft | 568 kts | 101° |
| 2026-04-30 22:23 | 37.37242 | -22.83670 | 32965 ft | 569 kts | 101° |
| 2026-04-30 22:24 | 37.36070 | -22.73833 | 32964 ft | 568 kts | 102° |
| 2026-04-30 22:24 | 37.34894 | -22.64030 | 32956 ft | 566 kts | 102° |
| 2026-04-30 22:25 | 37.33715 | -22.54276 | 32953 ft | 563 kts | 102° |
| 2026-04-30 22:25 | 37.32530 | -22.44548 | 32979 ft | 563 kts | 102° |
| 2026-04-30 22:26 | 37.30736 | -22.29952 | 32977 ft | 564 kts | 102° |
| 2026-04-30 22:27 | 37.29529 | -22.20215 | 32979 ft | 564 kts | 102° |
| 2026-04-30 22:27 | 37.27703 | -22.05605 | 32984 ft | 565 kts | 102° |
| 2026-04-30 22:28 | 37.25876 | -21.91140 | 32931 ft | 565 kts | 102° |
| 2026-04-30 22:29 | 37.23392 | -21.71692 | 32987 ft | 564 kts | 102° |
| 2026-04-30 22:31 | 37.18978 | -21.37776 | 33002 ft | 564 kts | 102° |
| 2026-04-30 22:32 | 37.15767 | -21.13582 | 33000 ft | 561 kts | 102° |
| 2026-04-30 22:33 | 37.12550 | -20.89723 | 33003 ft | 558 kts | 103° |
| 2026-04-30 22:35 | 37.09278 | -20.65833 | 33007 ft | 555 kts | 103° |
| 2026-04-30 22:36 | 37.05971 | -20.42056 | 33015 ft | 553 kts | 103° |
| 2026-04-30 22:37 | 37.03301 | -20.23117 | 33018 ft | 552 kts | 103° |
| 2026-04-30 22:38 | 37.00622 | -20.04296 | 33029 ft | 551 kts | 102° |
| 2026-04-30 22:38 | 36.99966 | -19.94903 | 33019 ft | 554 kts | 90° |
| 2026-04-30 22:39 | 37.00070 | -19.90085 | 33033 ft | 554 kts | 89° |
| 2026-04-30 22:40 | 37.00757 | -19.61213 | 33035 ft | 553 kts | 90° |
| 2026-04-30 22:41 | 37.01147 | -19.37196 | 33035 ft | 551 kts | 90° |
| 2026-04-30 22:43 | 37.01565 | -19.08427 | 33039 ft | 551 kts | 90° |
| 2026-04-30 22:44 | 37.01802 | -18.89449 | 33046 ft | 549 kts | 91° |
| 2026-04-30 22:45 | 37.02103 | -18.60830 | 33050 ft | 548 kts | 91° |
| 2026-04-30 22:47 | 37.02335 | -18.32227 | 33057 ft | 548 kts | 91° |
| 2026-04-30 22:48 | 37.02451 | -18.13168 | 33059 ft | 547 kts | 91° |
| 2026-04-30 22:49 | 37.02568 | -17.84869 | 33059 ft | 545 kts | 91° |
| 2026-04-30 22:51 | 37.02618 | -17.56477 | 33066 ft | 543 kts | 92° |
| 2026-04-30 22:52 | 37.02617 | -17.42316 | 33068 ft | 542 kts | 92° |
| 2026-04-30 22:53 | 37.02590 | -17.23475 | 33069 ft | 541 kts | 92° |
| 2026-04-30 22:53 | 37.02550 | -17.09360 | 33069 ft | 541 kts | 92° |
| 2026-04-30 22:55 | 37.02448 | -16.86029 | 33079 ft | 539 kts | 92° |
| 2026-04-30 22:56 | 37.02333 | -16.67302 | 33074 ft | 537 kts | 92° |
| 2026-04-30 22:57 | 37.02148 | -16.43978 | 33077 ft | 536 kts | 92° |
| 2026-04-30 22:58 | 37.01968 | -16.25303 | 33090 ft | 537 kts | 92° |
| 2026-04-30 22:59 | 37.01644 | -15.97442 | 33087 ft | 536 kts | 92° |